createdAt,value
2022-11-25T00:01:34.410Z,48.80
2022-11-25T00:04:01.919Z,47.95
2022-11-25T00:06:30.065Z,42.42
2022-11-25T00:08:59.708Z,48.53
2022-11-25T00:11:27.218Z,45.85
2022-11-25T00:13:54.659Z,49.35
2022-11-25T00:16:23.764Z,51.72
2022-11-25T00:18:52.874Z,51.83
2022-11-25T00:21:22.084Z,50.13
2022-11-25T00:23:57.322Z,45.75
2022-11-25T00:26:26.116Z,50.47
2022-11-25T00:28:53.686Z,57.22
2022-11-25T00:31:23.459Z,52.30
2022-11-25T00:33:51.460Z,52.58
2022-11-25T00:36:30.801Z,59.38
2022-11-25T00:39:06.472Z,59.22
2022-11-25T00:41:52.745Z,56.67
2022-11-25T00:44:37.303Z,62.47
2022-11-25T00:47:05.599Z,59.50
2022-11-25T00:49:33.032Z,56.15
2022-11-25T00:52:00.302Z,56.92
2022-11-25T00:54:27.735Z,51.38
2022-11-25T00:56:55.190Z,57.80
2022-11-25T00:59:22.070Z,64.07
2022-11-25T01:01:49.111Z,59.47
2022-11-25T01:04:16.438Z,62.97
2022-11-25T01:06:43.958Z,63.13
2022-11-25T01:09:12.780Z,58.25
2022-11-25T01:11:40.455Z,57.47
2022-11-25T01:14:08.774Z,60.38
2022-11-25T01:16:36.107Z,60.50
2022-11-25T01:19:03.642Z,63.88
2022-11-25T01:21:33.072Z,62.50
2022-11-25T01:24:01.754Z,65.57
2022-11-25T01:26:29.696Z,66.93
2022-11-25T01:29:01.861Z,63.78
2022-11-25T01:31:31.219Z,67.77
2022-11-25T01:34:07.430Z,65.00
2022-11-25T01:36:34.797Z,65.65
2022-11-25T01:39:02.071Z,63.38
2022-11-25T01:41:32.254Z,65.32
2022-11-25T01:44:17.651Z,60.53
2022-11-25T01:47:10.536Z,63.05
2022-11-25T01:49:46.533Z,58.00
2022-11-25T01:52:13.837Z,69.10
2022-11-25T01:54:48.025Z,59.85
2022-11-25T01:57:21.778Z,54.38
2022-11-25T01:59:52.647Z,58.80
2022-11-25T02:02:21.234Z,56.72
2022-11-25T02:04:48.865Z,65.97
2022-11-25T02:07:40.355Z,63.88
2022-11-25T02:10:13.932Z,58.67
2022-11-25T02:12:43.314Z,56.38
2022-11-25T02:15:10.876Z,61.42
2022-11-25T02:17:37.866Z,64.55
2022-11-25T02:20:12.184Z,59.90
2022-11-25T02:22:59.898Z,57.22
2022-11-25T02:25:28.658Z,56.72
2022-11-25T02:28:03.630Z,56.17
2022-11-25T02:30:30.713Z,57.28
2022-11-25T02:32:59.160Z,52.22
2022-11-25T02:35:37.473Z,61.33
2022-11-25T02:38:04.740Z,58.92
2022-11-25T02:40:34.578Z,57.72
2022-11-25T02:43:01.500Z,52.10
2022-11-25T02:45:48.864Z,55.83
2022-11-25T02:48:16.442Z,58.30
2022-11-25T02:50:43.775Z,54.30
2022-11-25T02:53:11.107Z,55.05
2022-11-25T02:55:38.403Z,59.65
2022-11-25T02:58:05.388Z,61.97
2022-11-25T03:00:32.277Z,60.33
2022-11-25T03:02:59.606Z,61.65
2022-11-25T03:05:27.108Z,67.30
2022-11-25T03:07:54.094Z,61.28
2022-11-25T03:10:21.884Z,70.55
2022-11-25T03:12:49.116Z,62.15
2022-11-25T03:15:16.411Z,70.20
2022-11-25T03:17:43.654Z,70.60
2022-11-25T03:20:12.678Z,73.93
2022-11-25T03:22:39.860Z,72.13
2022-11-25T03:25:07.131Z,74.78
2022-11-25T03:27:34.699Z,79.57
2022-11-25T03:30:01.768Z,84.75
2022-11-25T03:32:29.050Z,77.10
2022-11-25T03:34:58.782Z,73.20
2022-11-25T03:37:25.880Z,75.57
2022-11-25T03:39:52.813Z,81.22
2022-11-25T03:42:20.040Z,76.18
2022-11-25T03:44:46.882Z,81.35
2022-11-25T03:47:13.871Z,78.38
2022-11-25T03:49:41.123Z,80.72
2022-11-25T03:52:08.192Z,72.45
2022-11-25T03:54:35.271Z,81.72
2022-11-25T03:57:02.658Z,87.85
2022-11-25T03:59:29.901Z,72.95
2022-11-25T04:01:56.775Z,77.30
2022-11-25T04:04:24.587Z,72.00
2022-11-25T04:06:51.412Z,72.53
2022-11-25T04:09:18.673Z,82.85
2022-11-25T04:12:03.941Z,76.38
2022-11-25T04:14:31.103Z,78.78
2022-11-25T04:16:58.469Z,79.10
2022-11-25T04:19:25.812Z,82.85
2022-11-25T04:21:53.387Z,74.82
2022-11-25T04:24:20.570Z,70.25
2022-11-25T04:26:47.767Z,74.35
2022-11-25T04:29:15.022Z,68.65
2022-11-25T04:31:42.284Z,74.55
2022-11-25T04:34:09.612Z,76.88
2022-11-25T04:36:36.550Z,69.82
2022-11-25T04:39:04.588Z,70.82
2022-11-25T04:41:31.818Z,69.85
2022-11-25T04:44:01.860Z,76.75
2022-11-25T04:46:36.127Z,70.10
2022-11-25T04:49:03.006Z,73.55
2022-11-25T04:51:32.757Z,63.42
2022-11-25T04:54:00.487Z,72.78
2022-11-25T04:56:27.772Z,71.50
2022-11-25T04:59:12.959Z,75.63
2022-11-25T05:01:40.213Z,77.88
2022-11-25T05:04:07.477Z,77.38
2022-11-25T05:06:34.367Z,75.68
2022-11-25T05:09:01.306Z,66.47
2022-11-25T05:11:28.626Z,76.10
2022-11-25T05:13:55.525Z,74.07
2022-11-25T05:16:22.788Z,83.03
2022-11-25T05:18:50.010Z,83.70
2022-11-25T05:21:17.245Z,68.35
2022-11-25T05:23:44.077Z,79.10
2022-11-25T05:26:11.846Z,82.20
2022-11-25T05:28:39.079Z,71.22
2022-11-25T05:31:06.256Z,82.78
2022-11-25T05:33:33.195Z,85.80
2022-11-25T05:36:02.812Z,82.38
2022-11-25T05:38:30.068Z,85.53
2022-11-25T05:41:05.629Z,78.63
2022-11-25T05:43:33.268Z,90.00
2022-11-25T05:46:00.502Z,88.60
2022-11-25T05:48:27.385Z,84.75
2022-11-25T05:50:54.622Z,86.45
2022-11-25T05:53:21.517Z,88.50
2022-11-25T05:56:00.371Z,85.80
2022-11-25T05:58:29.298Z,87.50
2022-11-25T06:00:57.203Z,91.90
2022-11-25T06:03:28.660Z,90.38
2022-11-25T06:05:59.742Z,95.55
2022-11-25T06:08:27.998Z,100.88
2022-11-25T06:10:54.931Z,86.38
2022-11-25T06:13:22.256Z,98.65
2022-11-25T06:15:49.654Z,94.28
2022-11-25T06:18:18.082Z,82.38
2022-11-25T06:20:45.617Z,89.80
2022-11-25T06:23:13.185Z,91.22
2022-11-25T06:25:40.019Z,87.10
2022-11-25T06:28:14.473Z,97.55
2022-11-25T06:30:41.673Z,84.93
2022-11-25T06:33:08.908Z,92.15
2022-11-25T06:35:36.552Z,79.25
2022-11-25T06:38:03.921Z,79.47
2022-11-25T06:40:31.149Z,85.97
2022-11-25T06:42:58.487Z,68.88
2022-11-25T06:45:25.328Z,72.22
2022-11-25T06:47:52.180Z,62.90
2022-11-25T06:50:19.042Z,61.67
2022-11-25T06:52:46.285Z,60.75
2022-11-25T06:55:13.501Z,59.13
2022-11-25T06:57:40.770Z,101.47
2022-11-25T07:00:08.292Z,70.47
2022-11-25T07:02:41.747Z,55.55
2022-11-25T07:05:11.825Z,45.00
2022-11-25T07:07:38.817Z,36.42
2022-11-25T07:10:06.473Z,41.17
2022-11-25T07:12:33.381Z,33.35
2022-11-25T07:15:00.546Z,25.63
2022-11-25T07:17:27.415Z,25.60
2022-11-25T07:19:54.334Z,32.78
2022-11-25T07:22:21.160Z,31.33
2022-11-25T07:24:47.983Z,36.65
2022-11-25T07:27:14.877Z,34.83
2022-11-25T07:29:58.270Z,37.42
2022-11-25T07:32:29.085Z,34.97
2022-11-25T07:34:56.149Z,34.13
2022-11-25T07:37:23.034Z,28.05
2022-11-25T07:39:49.929Z,44.97
2022-11-25T07:42:16.769Z,36.30
2022-11-25T07:44:43.622Z,34.35
2022-11-25T07:47:10.462Z,36.15
2022-11-25T07:49:37.483Z,35.47
2022-11-25T07:52:04.699Z,35.08
2022-11-25T07:54:33.209Z,43.50
2022-11-25T07:57:00.063Z,41.17
2022-11-25T07:59:27.100Z,43.53
2022-11-25T08:01:55.366Z,37.65
2022-11-25T08:04:23.022Z,42.00
2022-11-25T08:06:51.861Z,38.05
2022-11-25T08:09:22.143Z,34.13
2022-11-25T08:11:49.790Z,33.67
2022-11-25T08:14:17.573Z,39.30
2022-11-25T08:16:45.335Z,35.60
2022-11-25T08:19:15.679Z,36.75
2022-11-25T08:21:42.922Z,31.58
2022-11-25T08:24:16.128Z,37.08
2022-11-25T08:26:43.312Z,32.83
2022-11-25T08:29:14.094Z,37.22
2022-11-25T08:31:41.029Z,42.08
2022-11-25T08:34:08.002Z,40.42
2022-11-25T08:36:35.816Z,40.13
2022-11-25T08:39:22.619Z,157.40
2022-11-25T08:41:53.034Z,44.63
2022-11-25T08:44:19.938Z,39.75
2022-11-25T08:46:46.952Z,44.22
2022-11-25T08:49:16.856Z,37.25
2022-11-25T08:51:43.976Z,42.47
2022-11-25T08:54:10.933Z,36.90
2022-11-25T08:56:37.787Z,42.42
2022-11-25T08:59:04.929Z,28.10
2022-11-25T09:01:32.548Z,26.02
2022-11-25T09:03:59.476Z,37.78
2022-11-25T09:06:27.688Z,35.35
2022-11-25T09:09:01.719Z,32.38
2022-11-25T09:11:28.964Z,30.55
2022-11-25T09:13:56.052Z,36.60
2022-11-25T09:16:23.098Z,37.47
2022-11-25T09:18:55.628Z,35.55
2022-11-25T09:21:25.213Z,38.92
2022-11-25T09:23:54.196Z,37.03
2022-11-25T09:26:26.380Z,38.05
2022-11-25T09:28:53.240Z,34.13
2022-11-25T09:31:20.629Z,36.85
2022-11-25T09:33:47.712Z,42.40
2022-11-25T09:36:16.224Z,36.22
2022-11-25T09:38:46.280Z,38.60
2022-11-25T09:41:53.528Z,42.25
2022-11-25T09:44:38.789Z,41.08
2022-11-25T09:47:30.920Z,34.88
2022-11-25T09:50:10.219Z,37.78
2022-11-25T09:52:47.036Z,36.42
2022-11-25T09:55:24.181Z,40.25
2022-11-25T09:58:32.766Z,34.15
2022-11-25T10:01:02.010Z,36.75
2022-11-25T10:03:46.005Z,35.90
2022-11-25T10:06:21.455Z,40.53
2022-11-25T10:08:55.078Z,38.00
2022-11-25T10:11:26.654Z,37.35
2022-11-25T10:14:26.449Z,36.42
2022-11-25T10:17:02.212Z,34.83
2022-11-25T10:19:35.469Z,36.38
2022-11-25T10:22:31.680Z,41.10
2022-11-25T10:25:02.349Z,37.25
2022-11-25T10:27:37.490Z,53.30
2022-11-25T10:30:24.171Z,39.42
2022-11-25T10:33:25.818Z,35.55
2022-11-25T10:35:55.458Z,36.45
2022-11-25T10:38:26.995Z,34.35
2022-11-25T10:40:55.990Z,32.42
2022-11-25T10:43:26.071Z,33.53
2022-11-25T10:46:43.459Z,33.20
2022-11-25T10:49:30.873Z,34.33
2022-11-25T10:51:57.992Z,31.10
2022-11-25T10:54:28.148Z,31.50
2022-11-25T10:56:57.115Z,34.17
2022-11-25T10:59:32.269Z,31.33
2022-11-25T11:02:29.244Z,33.10
2022-11-25T11:05:09.594Z,34.25
2022-11-25T11:07:47.615Z,35.83
2022-11-25T11:10:23.243Z,36.45
2022-11-25T11:13:03.461Z,32.50
2022-11-25T11:15:40.648Z,35.45
2022-11-25T11:18:19.618Z,35.22
2022-11-25T11:20:49.338Z,36.63
2022-11-25T11:23:16.363Z,34.83
2022-11-25T11:25:54.314Z,39.33
2022-11-25T11:28:36.185Z,34.67
2022-11-25T11:31:04.633Z,38.90
2022-11-25T11:33:54.271Z,47.47
2022-11-25T11:36:39.122Z,39.78
2022-11-25T11:39:15.066Z,39.30
2022-11-25T11:42:04.959Z,44.58
2022-11-25T11:44:32.265Z,45.50
2022-11-25T11:47:08.594Z,186.23
2022-11-25T11:50:06.007Z,45.60
2022-11-25T11:52:54.696Z,51.95
2022-11-25T11:55:30.393Z,47.22
2022-11-25T11:58:13.826Z,49.20
2022-11-25T12:01:05.564Z,56.97
2022-11-25T12:03:38.987Z,54.13
2022-11-25T12:06:09.728Z,71.18
2022-11-25T12:08:59.173Z,53.25
2022-11-25T12:11:32.774Z,43.47
2022-11-25T12:14:31.249Z,46.45
2022-11-25T12:17:02.104Z,50.38
2022-11-25T12:19:47.787Z,49.45
2022-11-25T12:22:29.891Z,47.45
2022-11-25T12:25:19.999Z,43.92
2022-11-25T12:28:00.737Z,42.00
2022-11-25T12:30:51.326Z,41.17
2022-11-25T12:33:36.467Z,48.50
2022-11-25T12:36:28.817Z,47.70
2022-11-25T12:39:01.327Z,49.15
2022-11-25T12:41:37.321Z,55.67
2022-11-25T12:44:29.502Z,53.25
2022-11-25T12:46:57.843Z,69.03
2022-11-25T12:49:31.264Z,61.60
2022-11-25T12:52:08.015Z,61.25
2022-11-25T12:55:00.622Z,57.75
2022-11-25T12:57:30.230Z,57.50
2022-11-25T13:03:35.018Z,54.33
2022-11-25T13:06:05.076Z,64.70
2022-11-25T13:08:40.739Z,51.53
2022-11-25T13:11:26.332Z,52.53
2022-11-25T13:14:15.770Z,54.65
2022-11-25T13:16:47.436Z,67.05
2022-11-25T13:19:21.108Z,62.75
2022-11-25T13:22:00.982Z,61.67
2022-11-25T13:24:38.975Z,54.40
2022-11-25T13:27:26.474Z,50.80
2022-11-25T13:29:55.114Z,47.65
2022-11-25T13:32:31.416Z,50.78
2022-11-25T13:35:24.515Z,58.67
2022-11-25T13:37:51.733Z,45.78
2022-11-25T13:40:38.809Z,47.30
2022-11-25T13:43:06.166Z,47.95
2022-11-25T13:45:43.522Z,49.67
2022-11-25T13:48:24.500Z,55.92
2022-11-25T13:51:12.195Z,49.85
2022-11-25T13:53:39.561Z,53.47
2022-11-25T13:56:21.429Z,46.15
2022-11-25T13:59:09.951Z,42.42
2022-11-25T14:02:01.442Z,49.28
2022-11-25T14:04:56.615Z,50.53
2022-11-25T14:07:58.451Z,52.38
2022-11-25T14:10:39.911Z,56.65
2022-11-25T14:13:37.097Z,54.30
2022-11-25T14:16:21.795Z,56.40
2022-11-25T14:19:50.598Z,55.55
2022-11-25T14:22:43.171Z,52.58
2022-11-25T14:28:30.998Z,50.35
2022-11-25T14:31:03.917Z,58.38
2022-11-25T14:33:36.638Z,65.63
2022-11-25T14:36:12.901Z,60.08
2022-11-25T14:38:49.811Z,61.78
2022-11-25T14:41:35.523Z,73.13
2022-11-25T14:44:07.044Z,69.60
2022-11-25T14:46:33.926Z,62.17
2022-11-25T14:49:05.097Z,66.65
2022-11-25T14:51:37.884Z,66.03
2022-11-25T14:54:08.660Z,64.63
2022-11-25T14:56:37.057Z,63.40
2022-11-25T14:59:04.143Z,66.85
2022-11-25T15:01:33.541Z,64.03
2022-11-25T15:04:08.778Z,68.82
2022-11-25T15:06:41.110Z,62.25
2022-11-25T15:09:31.619Z,68.05
2022-11-25T15:12:10.549Z,66.63
2022-11-25T15:14:41.667Z,58.50
2022-11-25T15:17:16.889Z,66.82
2022-11-25T15:19:44.234Z,69.15
2022-11-25T15:22:29.246Z,55.95
2022-11-25T15:25:08.450Z,57.78
2022-11-25T15:27:42.786Z,63.88
2022-11-25T15:30:25.801Z,57.83
2022-11-25T15:32:54.315Z,64.68
2022-11-25T15:35:24.062Z,58.47
2022-11-25T15:37:51.090Z,64.18
2022-11-25T15:40:33.094Z,70.03
2022-11-25T15:43:02.455Z,60.90
2022-11-25T15:45:43.798Z,64.25
2022-11-25T15:48:29.757Z,68.82
2022-11-25T15:51:21.926Z,67.05
2022-11-25T15:53:55.085Z,67.32
2022-11-25T15:56:26.176Z,64.10
2022-11-25T15:58:56.179Z,67.00
2022-11-25T16:01:28.636Z,67.82
2022-11-25T16:04:21.233Z,63.70
2022-11-25T16:06:56.433Z,71.05
2022-11-25T16:09:25.446Z,63.70
2022-11-25T16:11:52.789Z,66.68
2022-11-25T16:14:29.208Z,64.63
2022-11-25T16:17:01.681Z,65.45
2022-11-25T16:19:38.060Z,138.75
2022-11-25T16:22:05.779Z,97.80
2022-11-25T16:24:40.770Z,73.35
2022-11-25T16:27:23.184Z,74.82
2022-11-25T16:30:08.498Z,68.93
2022-11-25T16:32:35.756Z,69.72
2022-11-25T16:35:21.200Z,76.45
2022-11-25T16:37:49.588Z,66.97
2022-11-25T16:40:18.319Z,66.00
2022-11-25T16:42:49.941Z,79.15
2022-11-25T16:45:22.399Z,69.60
2022-11-25T16:47:49.427Z,76.38
2022-11-25T16:50:17.769Z,67.60
2022-11-25T16:52:44.932Z,74.53
2022-11-25T16:55:12.520Z,69.18
2022-11-25T16:57:41.940Z,74.63
2022-11-25T17:00:14.525Z,83.20
2022-11-25T17:02:41.490Z,85.85
2022-11-25T17:05:18.801Z,71.80
2022-11-25T17:07:45.918Z,77.15
2022-11-25T17:10:12.812Z,81.72
2022-11-25T17:12:42.685Z,79.53
2022-11-25T17:15:18.769Z,72.03
2022-11-25T17:17:49.170Z,77.28
2022-11-25T17:20:17.914Z,84.72
2022-11-25T17:22:44.895Z,69.78
2022-11-25T17:25:13.146Z,65.22
2022-11-25T17:27:40.570Z,74.95
2022-11-25T17:30:16.372Z,78.85
2022-11-25T17:32:43.263Z,74.68
2022-11-25T17:35:19.211Z,71.97
2022-11-25T17:37:46.802Z,90.82
2022-11-25T17:40:14.133Z,84.07
2022-11-25T17:42:42.009Z,85.63
2022-11-25T17:45:13.912Z,153.60
2022-11-25T17:47:41.074Z,103.45
2022-11-25T17:50:26.580Z,95.43
2022-11-25T17:52:53.560Z,89.40
2022-11-25T17:55:22.031Z,85.75
2022-11-25T17:57:49.789Z,88.53
2022-11-25T18:00:21.921Z,67.60
2022-11-25T18:02:49.692Z,77.87
2022-11-25T18:05:20.490Z,74.07
2022-11-25T18:07:48.120Z,75.13
2022-11-25T18:10:17.782Z,76.43
2022-11-25T18:12:47.210Z,72.85
2022-11-25T18:15:20.609Z,76.28
2022-11-25T18:17:49.045Z,74.97
2022-11-25T18:20:21.976Z,68.05
2022-11-25T18:22:50.067Z,66.22
2022-11-25T18:25:19.210Z,76.57
2022-11-25T18:27:47.218Z,79.00
2022-11-25T18:30:20.638Z,76.60
2022-11-25T18:32:47.785Z,81.97
2022-11-25T18:35:21.826Z,74.57
2022-11-25T18:37:49.191Z,77.93
2022-11-25T18:40:17.125Z,75.68
2022-11-25T18:42:47.327Z,86.00
2022-11-25T18:45:27.102Z,80.50
2022-11-25T18:47:54.464Z,89.18
2022-11-25T18:50:23.928Z,88.60
2022-11-25T18:52:51.326Z,93.28
2022-11-25T18:55:20.962Z,95.15
2022-11-25T18:57:50.083Z,91.18
2022-11-25T19:00:32.658Z,93.78
2022-11-25T19:03:00.865Z,93.05
2022-11-25T19:05:33.362Z,89.22
2022-11-25T19:08:00.406Z,95.10
2022-11-25T19:10:34.375Z,93.05
2022-11-25T19:13:03.789Z,87.53
2022-11-25T19:15:31.211Z,95.80
2022-11-25T19:18:00.950Z,103.50
2022-11-25T19:20:31.583Z,95.85
2022-11-25T19:23:01.480Z,94.75
2022-11-25T19:25:29.426Z,90.05
2022-11-25T19:27:59.385Z,100.90
2022-11-25T19:30:29.841Z,384.92
2022-11-25T19:32:58.763Z,103.30
2022-11-25T19:35:37.487Z,103.03
2022-11-25T19:38:21.887Z,114.80
2022-11-25T19:40:49.522Z,113.40
2022-11-25T19:43:16.652Z,111.90
2022-11-25T19:45:44.774Z,103.00
2022-11-25T19:48:18.302Z,103.47
2022-11-25T19:50:47.172Z,116.10
2022-11-25T19:53:20.344Z,119.90
2022-11-25T19:55:50.614Z,117.95
2022-11-25T19:58:17.885Z,120.78
2022-11-25T20:00:47.355Z,123.00
2022-11-25T20:03:26.806Z,128.05
2022-11-25T20:05:54.832Z,122.45
2022-11-25T20:08:27.492Z,124.35
2022-11-25T20:10:55.556Z,129.10
2022-11-25T20:13:26.294Z,122.30
2022-11-25T20:15:55.843Z,124.68
2022-11-25T20:18:24.879Z,117.20
2022-11-25T20:21:04.942Z,131.88
2022-11-25T20:23:43.689Z,135.43
2022-11-25T20:26:25.045Z,136.98
2022-11-25T20:28:51.871Z,119.97
2022-11-25T20:31:19.242Z,133.32
2022-11-25T20:33:48.400Z,129.75
2022-11-25T20:36:19.081Z,128.23
2022-11-25T20:38:52.925Z,122.10
2022-11-25T20:41:25.926Z,125.38
2022-11-25T20:43:56.499Z,134.20
2022-11-25T20:46:27.058Z,126.78
2022-11-25T20:48:56.842Z,117.05
2022-11-25T20:51:24.468Z,127.85
2022-11-25T20:53:53.903Z,125.45
2022-11-25T20:56:23.237Z,133.18
2022-11-25T20:58:50.250Z,134.95
2022-11-25T21:01:20.940Z,120.45
2022-11-25T21:03:49.598Z,119.95
2022-11-25T21:06:16.873Z,126.53
2022-11-25T21:08:47.707Z,116.00
2022-11-25T21:11:15.351Z,129.57
2022-11-25T21:13:42.323Z,114.25
2022-11-25T21:16:09.400Z,129.52
2022-11-25T21:18:36.875Z,112.20
2022-11-25T21:21:04.390Z,123.28
2022-11-25T21:23:35.057Z,109.50
2022-11-25T21:26:06.554Z,113.95
2022-11-25T21:28:39.610Z,101.40
2022-11-25T21:33:38.208Z,88.97
2022-11-25T21:36:05.358Z,110.50
2022-11-25T21:38:32.388Z,108.10
2022-11-25T21:40:59.331Z,108.50
2022-11-25T21:43:28.435Z,101.05
2022-11-25T21:46:01.772Z,99.72
2022-11-25T21:48:29.713Z,92.47
2022-11-25T21:50:56.787Z,104.55
2022-11-25T21:53:23.985Z,87.47
2022-11-25T21:55:51.496Z,95.68
2022-11-25T21:58:18.557Z,92.53
2022-11-25T22:00:50.821Z,89.75
2022-11-25T22:03:19.861Z,89.80
2022-11-25T22:05:47.419Z,96.80
2022-11-25T22:08:14.682Z,92.13
2022-11-25T22:10:45.253Z,92.82
2022-11-25T22:13:23.673Z,99.30
2022-11-25T22:15:56.941Z,87.43
2022-11-25T22:18:30.806Z,98.78
2022-11-25T22:20:58.308Z,70.15
2022-11-25T22:23:25.365Z,326.65
2022-11-25T22:25:52.802Z,126.18
2022-11-25T22:28:25.779Z,109.35
2022-11-25T22:31:00.233Z,101.13
2022-11-25T22:33:33.815Z,97.90
2022-11-25T22:36:03.942Z,101.68
2022-11-25T22:38:31.801Z,106.15
2022-11-25T22:41:05.039Z,109.30
2022-11-25T22:43:38.773Z,119.63
2022-11-25T22:46:06.169Z,104.10
2022-11-25T22:48:39.514Z,107.95
2022-11-25T22:51:12.150Z,113.25
2022-11-25T22:53:39.123Z,108.78
2022-11-25T22:56:14.569Z,103.65
2022-11-25T22:58:41.806Z,103.57
2022-11-25T23:01:14.374Z,112.75
2022-11-25T23:03:42.471Z,172.65
2022-11-25T23:06:13.930Z,126.10
2022-11-25T23:08:41.198Z,118.13
2022-11-25T23:11:19.555Z,118.13
2022-11-25T23:13:48.817Z,127.80
2022-11-25T23:16:16.289Z,112.53
2022-11-25T23:18:45.927Z,117.25
2022-11-25T23:21:27.996Z,124.32
2022-11-25T23:23:55.668Z,117.70
2022-11-25T23:29:08.583Z,105.60
2022-11-25T23:31:37.879Z,100.80
2022-11-25T23:34:09.775Z,113.82
2022-11-25T23:36:44.828Z,107.18
2022-11-25T23:39:25.611Z,116.32
2022-11-25T23:41:53.666Z,107.25
2022-11-25T23:44:25.978Z,84.18
2022-11-25T23:47:00.395Z,114.07
2022-11-25T23:49:33.062Z,103.70
2022-11-25T23:52:07.622Z,114.68
2022-11-25T23:54:42.720Z,118.78
2022-11-25T23:57:23.026Z,95.00
2022-11-25T23:59:50.905Z,101.47
